createdAt,value
2019-05-17T00:05:19.971Z,7.50
2019-05-17T00:10:43.059Z,9.30
2019-05-17T00:16:07.197Z,7.83
2019-05-17T00:21:31.557Z,5.93
2019-05-17T00:26:55.444Z,5.33
2019-05-17T00:32:19.509Z,4.57
2019-05-17T00:37:43.727Z,5.60
2019-05-17T00:43:07.304Z,6.30
2019-05-17T00:48:31.246Z,11.50
2019-05-17T00:53:56.232Z,7.20
2019-05-17T00:59:20.159Z,6.30
2019-05-17T01:04:43.761Z,5.80
2019-05-17T01:10:08.807Z,13.50
2019-05-17T01:15:31.927Z,7.23
2019-05-17T01:20:56.774Z,6.37
2019-05-17T01:26:20.865Z,10.03
2019-05-17T01:31:46.592Z,7.10
2019-05-17T01:37:10.683Z,15.70
2019-05-17T01:42:34.101Z,9.93
2019-05-17T01:47:57.690Z,8.43
2019-05-17T01:53:20.940Z,9.73
2019-05-17T01:58:46.835Z,11.87
2019-05-17T02:04:09.742Z,8.40
2019-05-17T02:09:37.947Z,12.63
2019-05-17T02:14:58.185Z,14.27
2019-05-17T02:20:23.415Z,8.00
2019-05-17T02:25:47.399Z,14.03
2019-05-17T02:31:13.245Z,15.80
2019-05-17T02:36:35.947Z,11.33
2019-05-17T02:42:02.560Z,15.87
2019-05-17T02:47:25.232Z,6.80
2019-05-17T02:52:52.695Z,16.87
2019-05-17T02:58:14.068Z,15.47
2019-05-17T03:03:37.498Z,11.87
2019-05-17T03:09:03.428Z,17.10
2019-05-17T03:14:25.980Z,14.47
2019-05-17T03:19:52.705Z,10.37
2019-05-17T03:25:14.700Z,12.37
2019-05-17T03:30:46.683Z,10.83
2019-05-17T03:36:07.618Z,12.53
2019-05-17T03:41:34.019Z,10.10
2019-05-17T03:46:57.020Z,10.60
2019-05-17T03:52:22.443Z,10.73
2019-05-17T03:57:45.115Z,17.63
2019-05-17T04:03:09.305Z,17.33
2019-05-17T04:08:33.547Z,10.00
2019-05-17T04:13:57.557Z,9.77
2019-05-17T04:19:22.958Z,14.77
2019-05-17T04:24:47.364Z,10.37
2019-05-17T04:30:12.609Z,8.23
2019-05-17T04:35:35.441Z,11.13
2019-05-17T04:40:58.600Z,11.93
2019-05-17T04:46:23.604Z,12.73
2019-05-17T04:51:47.817Z,11.97
2019-05-17T04:57:13.163Z,8.80
2019-05-17T05:02:37.128Z,15.27
2019-05-17T05:08:03.133Z,9.53
2019-05-17T05:13:26.243Z,12.33
2019-05-17T05:18:52.118Z,12.07
2019-05-17T05:24:14.788Z,9.90
2019-05-17T05:29:38.108Z,8.17
2019-05-17T05:35:03.132Z,9.90
2019-05-17T05:40:27.255Z,11.23
2019-05-17T05:45:50.404Z,8.53
2019-05-17T05:51:13.925Z,9.90
2019-05-17T05:56:38.063Z,15.77
2019-05-17T06:02:01.814Z,10.50
2019-05-17T06:07:26.007Z,13.37
2019-05-17T06:12:51.611Z,14.47
2019-05-17T06:18:14.362Z,14.43
2019-05-17T06:23:37.821Z,10.10
2019-05-17T06:29:02.757Z,7.70
2019-05-17T06:34:27.135Z,7.90
2019-05-17T06:39:52.626Z,7.40
2019-05-17T06:45:16.659Z,10.27
2019-05-17T06:50:43.009Z,8.23
2019-05-17T06:56:05.539Z,10.00
2019-05-17T07:01:29.267Z,9.60
2019-05-17T07:07:12.371Z,9.47
2019-05-17T07:12:35.511Z,9.90
2019-05-17T07:17:59.976Z,9.23
2019-05-17T07:23:23.807Z,10.90
2019-05-17T07:28:46.998Z,7.67
2019-05-17T07:34:10.407Z,9.23
2019-05-17T07:39:34.583Z,7.90
2019-05-17T07:45:00.475Z,9.63
2019-05-17T07:50:23.322Z,10.87
2019-05-17T07:55:47.095Z,9.93
2019-05-17T08:01:11.400Z,8.93
2019-05-17T08:06:35.141Z,8.17
2019-05-17T08:11:59.754Z,7.13
2019-05-17T08:17:23.136Z,7.40
2019-05-17T08:22:46.871Z,6.73
2019-05-17T08:28:11.099Z,6.00
2019-05-17T08:33:35.059Z,6.50
2019-05-17T08:38:59.675Z,6.77
2019-05-17T08:44:23.182Z,6.23
2019-05-17T08:49:49.511Z,5.53
2019-05-17T08:55:11.920Z,5.77
2019-05-17T09:00:35.817Z,4.90
2019-05-17T09:06:02.429Z,4.77
2019-05-17T09:11:23.897Z,4.83
2019-05-17T09:16:47.207Z,4.30
2019-05-17T09:22:10.635Z,4.77
2019-05-17T09:27:34.282Z,3.83
2019-05-17T09:33:00.138Z,4.33
2019-05-17T09:38:22.755Z,3.67
2019-05-17T09:43:49.542Z,3.67
2019-05-17T09:49:12.046Z,5.83
2019-05-17T09:54:42.445Z,3.00
2019-05-17T10:00:00.767Z,3.50
2019-05-17T10:05:24.702Z,4.03
2019-05-17T10:11:02.245Z,1.73
2019-05-17T10:16:12.870Z,2.93
2019-05-17T10:21:36.907Z,4.63
2019-05-17T10:27:00.673Z,4.27
2019-05-17T10:32:23.607Z,3.03
2019-05-17T10:37:47.163Z,3.30
2019-05-17T10:43:11.067Z,3.53
2019-05-17T10:48:34.785Z,2.07
2019-05-17T10:53:59.940Z,2.40
2019-05-17T10:59:23.925Z,1.47
2019-05-17T11:04:47.303Z,3.70
2019-05-17T11:10:12.427Z,3.63
2019-05-17T11:15:36.475Z,2.37
2019-05-17T11:21:00.278Z,2.57
2019-05-17T11:26:24.167Z,1.93
2019-05-17T11:31:47.571Z,2.90
2019-05-17T11:37:11.418Z,2.20
2019-05-17T11:42:35.432Z,3.40
2019-05-17T11:47:59.370Z,3.90
2019-05-17T11:53:23.294Z,2.93
2019-05-17T11:58:46.605Z,2.87
2019-05-17T12:04:09.961Z,3.73
2019-05-17T12:09:37.284Z,2.17
2019-05-17T12:14:58.211Z,3.20
2019-05-17T12:20:22.405Z,1.90
2019-05-17T12:25:45.851Z,2.33
2019-05-17T12:31:09.689Z,2.07
2019-05-17T12:36:32.963Z,1.53
2019-05-17T12:41:57.044Z,2.57
2019-05-17T12:47:20.762Z,1.93
2019-05-17T12:52:44.176Z,1.90
2019-05-17T12:58:07.682Z,2.83
2019-05-17T13:03:31.503Z,3.13
2019-05-17T13:08:54.826Z,2.50
2019-05-17T13:14:18.315Z,2.03
2019-05-17T13:19:41.877Z,1.10
2019-05-17T13:25:06.079Z,2.13
2019-05-17T13:30:29.873Z,1.40
2019-05-17T13:35:53.230Z,1.73
2019-05-17T13:41:16.066Z,1.73
2019-05-17T13:46:39.378Z,1.40
2019-05-17T13:52:02.983Z,1.70
2019-05-17T13:57:26.170Z,1.83
2019-05-17T14:02:49.672Z,3.17
2019-05-17T14:08:13.304Z,1.60
2019-05-17T14:13:36.713Z,2.67
2019-05-17T14:19:01.404Z,3.23
2019-05-17T14:24:26.607Z,2.40
2019-05-17T14:29:50.229Z,3.43
2019-05-17T14:35:14.639Z,2.43
2019-05-17T14:41:04.752Z,2.07
2019-05-17T14:46:03.028Z,4.50
2019-05-17T14:51:27.037Z,1.77
2019-05-17T14:56:50.671Z,1.50
2019-05-17T15:02:14.851Z,2.33
2019-05-17T15:07:38.303Z,3.80
2019-05-17T15:13:01.829Z,3.30
2019-05-17T15:18:25.523Z,2.20
2019-05-17T15:23:49.689Z,2.37
2019-05-17T15:29:13.036Z,1.90
2019-05-17T15:34:36.979Z,2.50
2019-05-17T15:40:00.684Z,3.03
2019-05-17T15:45:23.902Z,2.50
2019-05-17T15:50:47.318Z,2.10
2019-05-17T15:56:10.311Z,2.80
2019-05-17T16:01:33.839Z,3.13
2019-05-17T16:06:57.362Z,3.10
2019-05-17T16:12:20.913Z,3.20
2019-05-17T16:17:44.205Z,3.47
2019-05-17T16:23:08.144Z,3.30
2019-05-17T16:28:32.069Z,3.70
2019-05-17T16:33:55.563Z,5.20
2019-05-17T16:39:18.626Z,3.17
2019-05-17T16:44:42.504Z,3.47
2019-05-17T16:50:06.600Z,5.10
2019-05-17T16:55:31.035Z,4.60
2019-05-17T17:00:54.840Z,7.63
2019-05-17T17:06:18.624Z,3.83
2019-05-17T17:11:41.829Z,3.57
2019-05-17T17:17:11.358Z,3.40
2019-05-17T17:22:30.433Z,4.40
2019-05-17T17:27:54.278Z,3.87
2019-05-17T17:33:18.395Z,4.30
2019-05-17T17:38:42.170Z,4.73
2019-05-17T17:44:05.896Z,6.03
2019-05-17T17:49:29.384Z,4.73
2019-05-17T17:54:53.501Z,4.60
2019-05-17T18:00:18.395Z,3.87
2019-05-17T18:05:42.047Z,4.00
2019-05-17T18:11:05.387Z,4.07
2019-05-17T18:16:28.740Z,3.37
2019-05-17T18:21:52.317Z,4.20
2019-05-17T18:27:15.634Z,4.87
2019-05-17T18:32:39.571Z,5.13
2019-05-17T18:38:03.764Z,5.63
2019-05-17T18:43:27.982Z,3.90
2019-05-17T18:48:51.520Z,3.90
2019-05-17T18:54:21.284Z,4.10
2019-05-17T18:59:56.852Z,5.20
2019-05-17T19:05:25.976Z,5.27
2019-05-17T19:11:03.771Z,3.43
2019-05-17T19:16:34.771Z,3.97
2019-05-17T19:21:59.545Z,3.73
2019-05-17T19:27:26.783Z,4.17
2019-05-17T19:32:52.956Z,3.63
2019-05-17T19:38:23.203Z,3.93
2019-05-17T19:43:48.343Z,4.40
2019-05-17T19:49:13.290Z,5.07
2019-05-17T19:54:39.872Z,5.90
2019-05-17T20:00:04.421Z,3.83
2019-05-17T20:05:32.911Z,6.17
2019-05-17T20:11:01.182Z,3.90
2019-05-17T20:16:31.978Z,4.17
2019-05-17T20:21:56.562Z,4.30
2019-05-17T20:27:25.770Z,4.27
2019-05-17T20:32:56.042Z,4.33
2019-05-17T20:38:19.873Z,4.43
2019-05-17T20:43:43.450Z,6.93
2019-05-17T20:49:09.717Z,7.87
2019-05-17T20:54:41.836Z,7.73
2019-05-17T21:00:15.835Z,6.30
2019-05-17T21:05:40.441Z,5.40
2019-05-17T21:11:09.646Z,5.83
2019-05-17T21:16:42.183Z,5.00
2019-05-17T21:22:14.952Z,6.33
2019-05-17T21:33:42.587Z,5.20
2019-05-17T21:39:08.480Z,4.13
2019-05-17T21:50:45.550Z,6.27
2019-05-17T21:56:31.636Z,4.97
2019-05-17T22:01:58.388Z,7.33
2019-05-17T22:07:33.523Z,6.20
2019-05-17T22:12:57.036Z,5.33
2019-05-17T22:18:29.098Z,5.10
2019-05-17T22:24:10.863Z,5.30
2019-05-17T22:29:34.365Z,7.13
2019-05-17T22:34:59.196Z,5.43
2019-05-17T22:40:24.840Z,6.03
2019-05-17T22:45:48.741Z,6.80
2019-05-17T22:51:15.112Z,6.90
2019-05-17T22:56:39.019Z,6.50
2019-05-17T23:02:02.576Z,6.10
2019-05-17T23:07:25.787Z,5.40
2019-05-17T23:12:49.257Z,7.03
2019-05-17T23:18:12.432Z,8.07
2019-05-17T23:23:36.194Z,5.90
2019-05-17T23:28:59.919Z,4.97
2019-05-17T23:34:23.699Z,7.13
2019-05-17T23:39:48.315Z,4.50
2019-05-17T23:45:12.589Z,4.73
2019-05-17T23:50:36.362Z,3.83
2019-05-17T23:56:00.625Z,9.43
